Dornsife, PA (17823)

03:09 PM EST del 07 Dicembre 2016 (GMT -0500)
Old Middlecreek Lake Area | | Change Station

Alt. 449 ft 40.76 °N, 76.89 °W | Updated 46 seconds ago

Clear
Sereno
46.6 °F
Sembra 45 °F
N
4.5
Vento Variabile Vento da NO
Gusts 7.4 mph

Oggi
Massima -- | Minima -- °F
--% Possibilità di precip.
Ieri
Massima -- | Minima -- °F
Precip. -- in
Pressione 30.02 in
Visibilità 10.0 miglia
Nuvole Sereno
Raffreddamento del vento 45 °F
Punto di rugiada 23 °F
Umidità 39%
Piovosità 0.11 in
Spessore del manto nevoso Non disponibile.
7:18 AM 4:39 PM
Primo quarto, 55% visible
METAR KSEG 071953Z AUTO 28004KT 10SM CLR 07/M02 A3001 RMK AO2 SLP164 T00721022
Pressione 30.02 in
Visibilità 10.0 miglia
Nuvole Sereno
Raffreddamento del vento 45 °F
Punto di rugiada 23 °F
Umidità 39%
Piovosità 0.11 in
Spessore del manto nevoso Non disponibile.
7:18 AM 4:39 PM
Primo quarto, 55% visible
METAR KSEG 071953Z AUTO 28004KT 10SM CLR 07/M02 A3001 RMK AO2 SLP164 T00721022

10-Day Weather Forecast

Almanac

Astronomia

Dec. 07, 2016 Alba Tramonto
Ora attuale
Crepuscolo civile
Crepuscolo nautico
Crepuscolo astronomico
Luna
Estensione della luce visibile
Lunghezza del giorno
Tomorrow will be .
, % of the Moon is Illuminated

Gli estremi di oggi

State Highs State Lows

Community

WunderPhotos

Upload Photos

1,956,167 foto caricate!

WunderBlog® & News

Nearby

Qualità dell'aria

  Qualità dell'aria Indice AQ Inquinante
Not available.

Profondità neve

Stazione Profondità Altitudine

Attività sismica

Città  Distanza Mag. Data & Ora
Minimo Magnitudo Mostrato è 2.5.

Temperature delle acque costiere

Località Temperatura

Stations

Stazioni meteo nelle vicinanze

Ubicazione della stazione Temp. Raffreddamento del vento Punto di rugiada Umidità Vento Precip. Alt. Aggiornato Tipo
                   

Watches & Warnings

There are currently no watches in effect.